Time;durP1;ratioP1;P1;durP2;ratioP2;P2;SDS_P1;SDS_P2;PMS_P1;PMS_P2;Temp;Humidity;BMP_temperature;BMP_pressure;BME280_temperature;BME280_humidity;BME280_pressure;Samples;Min_cycle;Max_cycle;Signal;HPM_P1;HPM_P2
2022/03/15 00:01:31;;;;;;;32.97;17.40;;;6.10;99.90;;;;;;5032460;28;20424;-85
2022/03/15 00:04:00;;;;;;;34.50;17.03;;;6.10;99.90;;;;;;5047458;28;20208;-85
2022/03/15 00:06:27;;;;;;;38.33;16.77;;;6.00;99.90;;;;;;5050007;28;20735;-85
2022/03/15 00:08:55;;;;;;;33.60;17.80;;;6.00;99.90;;;;;;5033536;28;20232;-86
2022/03/15 00:11:23;;;;;;;31.23;17.60;;;6.00;99.90;;;;;;5050046;28;20280;-85
2022/03/15 00:13:53;;;;;;;29.57;16.30;;;6.00;99.90;;;;;;5034643;28;20670;-86
2022/03/15 00:16:22;;;;;;;36.77;16.93;;;5.90;99.90;;;;;;5060877;28;20254;-85
2022/03/15 00:18:52;;;;;;;34.87;16.70;;;5.90;99.90;;;;;;5040859;28;20205;-85
2022/03/15 00:21:20;;;;;;;29.90;16.43;;;5.90;99.90;;;;;;5059735;28;20226;-85
2022/03/15 00:23:48;;;;;;;30.60;15.93;;;5.80;99.90;;;;;;5066574;28;20254;-85
2022/03/15 00:26:15;;;;;;;36.07;15.47;;;5.90;99.90;;;;;;5053296;28;20228;-85
2022/03/15 00:28:42;;;;;;;30.40;15.67;;;5.90;99.90;;;;;;5049475;28;20289;-86
2022/03/15 00:31:09;;;;;;;33.57;15.43;;;5.80;99.90;;;;;;5032682;28;20341;-84
2022/03/15 00:33:36;;;;;;;31.27;15.83;;;5.80;99.90;;;;;;5039034;28;20232;-86
2022/03/15 00:36:03;;;;;;;32.50;16.43;;;5.90;99.90;;;;;;5050081;28;20315;-85
2022/03/15 00:38:30;;;;;;;34.87;17.20;;;5.70;99.90;;;;;;5050139;28;20252;-85
2022/03/15 00:40:58;;;;;;;31.20;15.30;;;5.70;99.90;;;;;;5032830;28;20205;-86
2022/03/15 00:43:25;;;;;;;34.97;16.33;;;5.70;99.90;;;;;;5031867;28;20561;-84
2022/03/15 00:45:55;;;;;;;30.23;14.77;;;5.70;99.90;;;;;;5032917;28;20704;-86
2022/03/15 00:48:23;;;;;;;32.63;16.33;;;5.60;99.90;;;;;;5041764;28;20578;-86
2022/03/15 00:50:51;;;;;;;30.20;15.43;;;5.60;99.90;;;;;;5028805;28;20229;-85
2022/03/15 00:53:19;;;;;;;29.97;15.20;;;5.60;99.90;;;;;;5054227;28;20750;-87
2022/03/15 00:55:47;;;;;;;31.00;15.37;;;5.60;99.90;;;;;;5043165;28;20265;-86
2022/03/15 00:58:16;;;;;;;29.17;15.20;;;5.60;99.90;;;;;;5046556;28;20678;-84
2022/03/15 01:00:48;;;;;;;30.40;15.50;;;5.60;99.90;;;;;;5049833;28;20216;-86
2022/03/15 01:03:17;;;;;;;37.40;15.63;;;5.60;99.90;;;;;;5033857;28;20209;-86
2022/03/15 01:05:45;;;;;;;29.43;15.87;;;5.60;99.90;;;;;;5049548;28;20205;-87
2022/03/15 01:08:13;;;;;;;32.30;16.83;;;5.50;99.90;;;;;;5033930;28;20292;-88
2022/03/15 01:10:41;;;;;;;32.80;16.60;;;5.50;99.90;;;;;;5032715;28;20300;-84
2022/03/15 01:13:08;;;;;;;34.17;17.10;;;5.50;99.90;;;;;;5041592;28;20235;-86
2022/03/15 01:15:44;;;;;;;34.27;16.37;;;5.50;99.90;;;;;;5041352;28;20253;-86
2022/03/15 01:18:12;;;;;;;34.60;16.80;;;5.50;99.90;;;;;;5032647;28;20212;-87
2022/03/15 01:20:41;;;;;;;30.07;15.70;;;5.50;99.90;;;;;;5044834;28;20203;-87
2022/03/15 01:23:09;;;;;;;35.33;16.70;;;5.40;99.90;;;;;;5048447;28;20238;-86
2022/03/15 01:25:37;;;;;;;28.07;15.53;;;5.40;99.90;;;;;;5031670;28;20195;-86
2022/03/15 01:28:05;;;;;;;28.73;16.23;;;5.40;99.90;;;;;;5031993;28;20289;-86
2022/03/15 01:30:32;;;;;;;36.23;17.77;;;5.40;99.90;;;;;;5035795;28;20313;-84
2022/03/15 01:32:59;;;;;;;36.07;16.37;;;5.40;99.90;;;;;;5031700;28;20700;-85
2022/03/15 01:35:27;;;;;;;35.50;17.03;;;5.40;99.90;;;;;;5031608;28;20296;-86
2022/03/15 01:37:54;;;;;;;32.40;15.43;;;5.40;99.90;;;;;;5047520;28;20226;-84
2022/03/15 01:40:21;;;;;;;32.37;15.97;;;5.40;99.90;;;;;;5031939;28;20201;-85
2022/03/15 01:42:47;;;;;;;31.47;15.90;;;5.40;99.90;;;;;;5030695;28;20679;-87
2022/03/15 01:45:16;;;;;;;28.53;15.37;;;5.50;99.90;;;;;;5032007;28;20755;-87
2022/03/15 01:47:43;;;;;;;28.83;14.63;;;5.40;99.90;;;;;;5045393;28;20230;-85
2022/03/15 01:50:11;;;;;;;28.63;14.27;;;5.30;99.90;;;;;;5041812;28;20293;-84
2022/03/15 01:52:40;;;;;;;28.23;14.57;;;5.30;99.90;;;;;;5032440;28;20204;-85
2022/03/15 01:55:07;;;;;;;30.13;14.77;;;5.30;99.90;;;;;;5047513;28;20415;-86
2022/03/15 01:57:34;;;;;;;41.27;15.73;;;5.30;99.90;;;;;;5031566;28;20547;-87
2022/03/15 02:00:04;;;;;;;41.57;15.43;;;5.30;99.90;;;;;;5033166;28;20425;-85
2022/03/15 02:02:32;;;;;;;26.07;14.23;;;5.30;99.90;;;;;;5040174;28;20203;-86
2022/03/15 02:05:01;;;;;;;35.07;16.27;;;5.40;99.90;;;;;;5033839;28;20340;-87
2022/03/15 02:07:27;;;;;;;31.57;15.63;;;5.30;99.90;;;;;;5034667;28;20208;-86
2022/03/15 02:09:56;;;;;;;31.13;16.00;;;5.20;99.90;;;;;;5035071;28;20239;-88
2022/03/15 02:12:23;;;;;;;30.57;15.40;;;5.30;99.90;;;;;;5035732;28;20699;-86
2022/03/15 02:14:50;;;;;;;30.00;14.23;;;5.20;99.90;;;;;;5036648;28;20342;-85
2022/03/15 02:17:18;;;;;;;31.33;15.67;;;5.20;99.90;;;;;;5056399;28;20298;-86
2022/03/15 02:19:45;;;;;;;33.60;14.70;;;5.30;99.90;;;;;;5052230;28;20691;-85
2022/03/15 02:22:14;;;;;;;26.37;14.30;;;5.30;99.90;;;;;;5036716;28;20208;-87
2022/03/15 02:24:42;;;;;;;26.70;13.73;;;5.30;99.90;;;;;;5034716;28;20737;-85
2022/03/15 02:27:09;;;;;;;29.33;15.30;;;5.30;99.90;;;;;;5052279;28;20249;-85
2022/03/15 02:29:37;;;;;;;33.57;15.17;;;5.30;99.90;;;;;;5041963;28;20596;-86
2022/03/15 02:32:04;;;;;;;29.90;15.10;;;5.30;99.90;;;;;;5046736;28;20272;-84
2022/03/15 02:34:31;;;;;;;29.23;14.73;;;5.40;99.90;;;;;;5035907;28;20303;-85
2022/03/15 02:36:58;;;;;;;29.10;13.27;;;5.30;99.90;;;;;;5035763;28;20301;-86
2022/03/15 02:39:25;;;;;;;32.57;15.93;;;5.40;99.90;;;;;;5040686;28;20606;-86
2022/03/15 02:41:55;;;;;;;30.07;14.40;;;5.40;99.90;;;;;;5040306;28;20213;-85
2022/03/15 02:44:23;;;;;;;31.87;14.00;;;5.40;99.90;;;;;;5036318;28;20278;-86
2022/03/15 02:46:52;;;;;;;27.47;13.43;;;5.40;99.90;;;;;;5054731;28;20333;-84
2022/03/15 02:49:19;;;;;;;29.67;14.03;;;5.40;99.90;;;;;;5035807;28;20203;-85
2022/03/15 02:51:46;;;;;;;28.43;13.63;;;5.40;99.90;;;;;;5035013;28;20294;-84
2022/03/15 02:54:13;;;;;;;33.53;14.20;;;5.40;99.90;;;;;;5052977;28;20326;-86
2022/03/15 02:56:43;;;;;;;27.33;14.10;;;5.30;99.90;;;;;;5036214;28;20254;-85
2022/03/15 02:59:14;;;;;;;30.10;13.87;;;5.40;99.90;;;;;;5053987;28;20291;-87
2022/03/15 03:01:45;;;;;;;28.97;12.97;;;5.40;99.90;;;;;;5053080;28;20203;-87
2022/03/15 03:04:18;;;;;;;32.10;13.67;;;5.40;99.90;;;;;;5057092;28;20236;-87
2022/03/15 03:06:46;;;;;;;30.90;14.50;;;5.40;99.90;;;;;;5039329;28;20640;-85
2022/03/15 03:09:14;;;;;;;27.07;13.20;;;5.30;99.90;;;;;;5040883;28;20322;-87
2022/03/15 03:11:42;;;;;;;29.10;13.87;;;5.40;99.90;;;;;;5062201;28;20222;-87
2022/03/15 03:14:12;;;;;;;38.97;15.00;;;5.30;99.90;;;;;;5066489;28;20259;-86
2022/03/15 03:16:40;;;;;;;35.93;14.37;;;5.30;99.90;;;;;;5062662;28;20206;-86
2022/03/15 03:19:08;;;;;;;30.67;13.83;;;5.30;99.90;;;;;;5069486;28;20212;-87
2022/03/15 03:21:36;;;;;;;32.43;14.27;;;5.30;99.90;;;;;;5065791;28;20193;-86
2022/03/15 03:24:06;;;;;;;29.33;13.90;;;5.30;99.90;;;;;;5045587;28;20685;-85
2022/03/15 03:26:38;;;;;;;34.03;13.67;;;5.30;99.90;;;;;;5036656;28;20258;-85
2022/03/15 03:29:10;;;;;;;36.20;13.90;;;5.30;99.90;;;;;;5047875;28;20300;-86
2022/03/15 03:31:38;;;;;;;32.37;14.07;;;5.30;99.90;;;;;;5051468;28;20677;-86
2022/03/15 03:34:20;;;;;;;28.77;15.33;;;5.20;99.90;;;;;;5059721;28;20244;-87
2022/03/15 03:36:48;;;;;;;27.20;13.53;;;5.30;99.90;;;;;;5034459;28;20230;-87
2022/03/15 03:39:40;;;;;;;34.53;14.53;;;5.30;99.90;;;;;;5059341;28;20318;-88
2022/03/15 03:42:16;;;;;;;34.33;14.77;;;5.30;99.90;;;;;;5021296;28;20233;-87
2022/03/15 03:44:45;;;;;;;28.97;13.93;;;5.30;99.90;;;;;;5067238;28;20215;-85
2022/03/15 03:47:14;;;;;;;30.97;13.93;;;5.30;99.90;;;;;;5063832;28;20216;-87
2022/03/15 03:49:42;;;;;;;35.87;14.57;;;5.30;99.90;;;;;;5062492;28;20213;-87
2022/03/15 03:52:12;;;;;;;31.13;14.23;;;5.40;99.90;;;;;;5053004;28;20202;-87
2022/03/15 03:54:39;;;;;;;30.80;13.57;;;5.30;99.90;;;;;;5054383;28;20240;-86
2022/03/15 03:57:06;;;;;;;32.20;13.23;;;5.30;99.90;;;;;;5059801;28;20231;-86
2022/03/15 03:59:33;;;;;;;24.93;13.33;;;5.30;99.90;;;;;;5092797;28;20204;-87
2022/03/15 04:02:00;;;;;;;28.90;12.73;;;5.30;99.90;;;;;;5074433;28;20220;-86
2022/03/15 04:04:28;;;;;;;34.97;14.17;;;5.40;99.90;;;;;;5074596;28;20257;-88
2022/03/15 04:07:05;;;;;;;28.23;13.57;;;5.40;99.90;;;;;;5085576;28;20231;-87
2022/03/15 04:09:32;;;;;;;27.90;12.37;;;5.40;99.90;;;;;;5060013;28;20208;-86
2022/03/15 04:12:00;;;;;;;37.20;13.30;;;5.30;99.90;;;;;;5082189;28;20227;-87
2022/03/15 04:14:28;;;;;;;32.40;13.67;;;5.40;99.90;;;;;;5060384;28;20266;-87
2022/03/15 04:16:55;;;;;;;32.23;13.17;;;5.40;99.90;;;;;;5056435;28;20726;-85
2022/03/15 04:19:26;;;;;;;25.07;12.77;;;5.50;99.90;;;;;;5055025;28;20220;-86
2022/03/15 04:21:54;;;;;;;29.47;14.63;;;5.40;99.90;;;;;;5073163;28;20249;-86
2022/03/15 04:24:21;;;;;;;29.93;13.63;;;5.40;99.90;;;;;;5076110;28;20435;-85
2022/03/15 04:26:48;;;;;;;27.37;13.07;;;5.50;99.90;;;;;;5058197;28;20223;-86
2022/03/15 04:29:15;;;;;;;24.83;11.83;;;5.50;99.90;;;;;;5055527;28;20206;-88
2022/03/15 04:31:43;;;;;;;25.73;13.10;;;5.50;99.90;;;;;;5054129;28;20256;-84
2022/03/15 04:34:10;;;;;;;27.57;12.97;;;5.50;99.90;;;;;;5069727;28;20224;-84
2022/03/15 04:36:37;;;;;;;27.77;13.77;;;5.50;99.90;;;;;;5071544;28;20252;-85
2022/03/15 04:39:04;;;;;;;28.47;13.93;;;5.50;99.90;;;;;;5052151;28;20941;-86
2022/03/15 04:41:31;;;;;;;32.17;13.27;;;5.50;99.90;;;;;;5053391;28;20234;-87
2022/03/15 04:43:58;;;;;;;34.83;13.37;;;5.50;99.90;;;;;;5069312;28;20300;-87
2022/03/15 04:46:27;;;;;;;28.07;13.93;;;5.50;99.90;;;;;;5070237;28;20225;-85
2022/03/15 04:48:55;;;;;;;33.97;13.23;;;5.50;99.90;;;;;;5068753;28;20654;-86
2022/03/15 04:51:24;;;;;;;34.13;13.57;;;5.60;99.90;;;;;;5054335;28;20251;-86
2022/03/15 04:53:52;;;;;;;33.87;13.83;;;5.60;99.90;;;;;;5055450;28;20747;-86
2022/03/15 04:56:19;;;;;;;28.30;13.90;;;5.60;99.90;;;;;;5031087;28;20311;-86
2022/03/15 04:58:48;;;;;;;37.27;14.07;;;5.50;99.90;;;;;;5033430;28;20233;-87
2022/03/15 05:01:14;;;;;;;28.90;13.43;;;5.50;99.90;;;;;;5028237;28;20243;-83
2022/03/15 05:03:44;;;;;;;30.37;14.17;;;5.50;99.90;;;;;;5034707;28;20299;-86
2022/03/15 05:06:11;;;;;;;28.53;13.77;;;5.50;99.90;;;;;;5042048;28;20207;-84
2022/03/15 05:08:37;;;;;;;30.70;14.77;;;5.50;99.90;;;;;;5055535;28;20311;-85
2022/03/15 05:11:08;;;;;;;28.77;13.67;;;5.50;99.90;;;;;;5029533;28;20218;-85
2022/03/15 05:13:35;;;;;;;32.47;14.77;;;5.50;99.90;;;;;;5033469;28;20197;-86
2022/03/15 05:16:02;;;;;;;33.87;15.67;;;5.60;99.90;;;;;;5046985;28;20309;-83
2022/03/15 05:18:29;;;;;;;38.27;15.50;;;5.50;99.90;;;;;;5043938;28;20681;-84
2022/03/15 05:20:56;;;;;;;35.67;15.57;;;5.50;99.90;;;;;;5048725;28;20300;-86
2022/03/15 05:23:23;;;;;;;36.43;15.47;;;5.50;99.90;;;;;;5045830;28;20248;-85
2022/03/15 05:25:50;;;;;;;34.63;16.70;;;5.50;99.90;;;;;;5035400;28;20861;-85
2022/03/15 05:28:16;;;;;;;35.47;16.73;;;5.50;99.90;;;;;;5030454;28;20209;-85
2022/03/15 05:30:44;;;;;;;35.37;16.60;;;5.60;99.90;;;;;;5047397;28;20298;-85
2022/03/15 05:33:12;;;;;;;32.23;16.37;;;5.60;99.90;;;;;;5033018;28;20319;-85
2022/03/15 05:35:39;;;;;;;41.00;16.87;;;5.60;99.90;;;;;;5037743;28;20282;-86
2022/03/15 05:38:06;;;;;;;33.83;16.43;;;5.60;99.90;;;;;;5026428;28;20200;-85
2022/03/15 05:40:34;;;;;;;36.20;16.73;;;5.70;99.90;;;;;;5046356;28;20204;-86
2022/03/15 05:43:01;;;;;;;39.97;18.33;;;5.60;99.90;;;;;;5047874;28;20234;-87
2022/03/15 05:45:28;;;;;;;40.53;18.63;;;5.60;99.90;;;;;;5049336;28;20253;-86
2022/03/15 05:47:56;;;;;;;41.27;19.07;;;5.70;99.90;;;;;;5030439;28;20287;-83
2022/03/15 05:50:24;;;;;;;42.73;19.63;;;5.70;99.90;;;;;;5046690;28;20662;-86
2022/03/15 05:52:50;;;;;;;40.10;18.20;;;5.70;99.90;;;;;;5044826;28;20269;-86
2022/03/15 05:55:17;;;;;;;41.53;18.87;;;5.70;99.90;;;;;;5042551;28;20612;-85
2022/03/15 05:57:44;;;;;;;51.37;21.10;;;5.70;99.90;;;;;;5036166;28;20204;-85
2022/03/15 06:00:12;;;;;;;47.20;21.13;;;5.80;99.90;;;;;;5040315;28;20226;-88
2022/03/15 06:02:40;;;;;;;43.43;19.90;;;5.80;99.90;;;;;;5032548;28;20294;-86
2022/03/15 06:05:09;;;;;;;45.20;20.70;;;5.80;99.90;;;;;;5019327;28;20212;-88
2022/03/15 06:07:46;;;;;;;46.00;21.87;;;5.80;99.90;;;;;;5028463;28;20240;-86
2022/03/15 06:10:15;;;;;;;48.57;20.93;;;5.90;99.90;;;;;;5028745;28;20331;-87
2022/03/15 06:12:42;;;;;;;45.40;21.60;;;5.90;99.90;;;;;;5046709;28;20296;-85
2022/03/15 06:15:10;;;;;;;52.90;23.07;;;5.80;99.90;;;;;;5029610;28;20242;-85
2022/03/15 06:17:48;;;;;;;52.43;22.77;;;6.00;99.90;;;;;;5022294;28;20304;-84
2022/03/15 06:20:18;;;;;;;50.03;21.90;;;6.00;99.90;;;;;;5046271;28;20294;-86
2022/03/15 06:22:46;;;;;;;51.40;23.23;;;6.00;99.90;;;;;;5045461;28;20249;-85
2022/03/15 06:25:14;;;;;;;53.43;22.90;;;6.00;99.90;;;;;;5047492;28;20824;-87
2022/03/15 06:27:49;;;;;;;47.13;23.07;;;6.00;99.90;;;;;;5026001;28;20204;-87
2022/03/15 06:30:17;;;;;;;52.40;23.87;;;6.10;99.90;;;;;;5034164;28;21182;-86
2022/03/15 06:32:46;;;;;;;54.77;24.43;;;6.10;99.90;;;;;;5047219;28;20291;-85
2022/03/15 06:35:14;;;;;;;55.93;24.87;;;6.10;99.90;;;;;;5049750;28;20236;-84
2022/03/15 06:37:45;;;;;;;53.60;25.07;;;6.10;99.90;;;;;;5046405;28;20209;-85
2022/03/15 06:40:14;;;;;;;53.07;24.53;;;6.20;99.90;;;;;;5042399;28;20265;-85
2022/03/15 06:42:43;;;;;;;48.77;24.73;;;6.20;99.90;;;;;;5052431;28;20492;-87
2022/03/15 06:45:10;;;;;;;50.67;24.90;;;6.20;99.90;;;;;;5041684;28;20247;-87
2022/03/15 06:47:38;;;;;;;56.77;26.37;;;6.30;99.90;;;;;;5047349;28;20276;-88
2022/03/15 06:50:12;;;;;;;53.33;23.23;;;6.30;99.90;;;;;;5044839;28;20284;-87
2022/03/15 06:52:41;;;;;;;50.20;23.97;;;6.40;99.90;;;;;;5035062;28;20208;-89
2022/03/15 06:55:09;;;;;;;56.93;25.97;;;6.50;99.90;;;;;;5033370;28;20290;-89
2022/03/15 06:57:36;;;;;;;58.23;25.70;;;6.50;99.90;;;;;;5034896;28;20210;-88
2022/03/15 07:00:06;;;;;;;53.27;24.60;;;6.60;99.90;;;;;;5042665;28;20208;-87
2022/03/15 07:02:33;;;;;;;47.00;24.63;;;6.60;99.90;;;;;;5041462;28;20251;-89
2022/03/15 07:05:01;;;;;;;47.53;24.47;;;6.60;99.90;;;;;;5042006;28;20290;-87
2022/03/15 07:07:27;;;;;;;44.47;22.90;;;6.70;99.90;;;;;;5049899;28;20205;-88
2022/03/15 07:09:59;;;;;;;47.60;23.10;;;6.70;99.90;;;;;;5053141;28;20289;-88
2022/03/15 07:12:33;;;;;;;44.57;24.03;;;6.80;99.90;;;;;;5055872;28;21352;-87
2022/03/15 07:15:00;;;;;;;46.60;23.13;;;6.80;99.90;;;;;;5054134;28;20224;-88
2022/03/15 07:17:30;;;;;;;44.13;22.87;;;6.80;99.90;;;;;;5051146;28;20200;-88
2022/03/15 07:19:57;;;;;;;45.97;23.57;;;6.90;99.90;;;;;;5038785;28;20239;-89
2022/03/15 07:22:25;;;;;;;40.67;22.30;;;6.90;99.90;;;;;;5036551;28;20201;-88
2022/03/15 07:24:52;;;;;;;44.10;21.87;;;7.00;99.90;;;;;;5052657;28;20204;-86
2022/03/15 07:27:19;;;;;;;40.63;21.77;;;7.00;99.90;;;;;;5039043;28;20229;-89
2022/03/15 07:29:46;;;;;;;36.57;20.13;;;7.10;99.90;;;;;;5054383;28;20234;-88
2022/03/15 07:32:13;;;;;;;42.67;21.63;;;7.10;99.90;;;;;;5043892;28;20269;-87
2022/03/15 07:34:40;;;;;;;41.37;21.03;;;7.20;99.90;;;;;;5046999;28;20290;-87
2022/03/15 07:37:09;;;;;;;40.30;21.70;;;7.30;99.90;;;;;;5050411;28;20194;-87
2022/03/15 07:39:37;;;;;;;37.43;20.70;;;7.30;99.90;;;;;;5047220;28;20308;-86
2022/03/15 07:42:04;;;;;;;46.67;22.17;;;7.30;99.90;;;;;;5021905;28;20289;-88
2022/03/15 07:44:31;;;;;;;35.17;20.73;;;7.40;99.90;;;;;;5038675;28;20229;-88
2022/03/15 07:46:58;;;;;;;38.67;20.77;;;7.40;99.90;;;;;;5055089;28;20213;-88
2022/03/15 07:49:25;;;;;;;36.83;20.10;;;7.50;99.90;;;;;;5052899;28;20206;-90
2022/03/15 07:51:53;;;;;;;32.57;20.57;;;7.50;99.90;;;;;;5050924;28;20220;-89
2022/03/15 07:54:19;;;;;;;37.47;19.40;;;7.60;99.90;;;;;;5048600;28;20229;-88
2022/03/15 07:56:47;;;;;;;35.33;19.33;;;7.70;99.90;;;;;;5050525;28;20297;-90
2022/03/15 07:59:19;;;;;;;35.33;19.27;;;7.70;99.90;;;;;;5046405;28;20645;-92
2022/03/15 08:01:46;;;;;;;31.60;17.77;;;7.70;99.90;;;;;;5050327;28;20245;-91
2022/03/15 08:04:14;;;;;;;32.27;18.83;;;7.80;99.90;;;;;;5048514;28;20211;-89
2022/03/15 08:06:40;;;;;;;29.37;17.30;;;7.80;99.90;;;;;;5048586;28;20206;-88
2022/03/15 08:09:08;;;;;;;32.90;17.83;;;7.90;99.90;;;;;;5047978;28;20272;-86
2022/03/15 08:11:40;;;;;;;28.10;17.27;;;7.90;99.90;;;;;;5047605;28;20218;-88
2022/03/15 08:14:09;;;;;;;29.63;17.17;;;7.90;99.90;;;;;;5034435;28;20235;-89
2022/03/15 08:16:37;;;;;;;31.40;16.37;;;8.00;99.90;;;;;;5048925;28;20762;-89
2022/03/15 08:19:04;;;;;;;28.40;17.33;;;8.00;99.90;;;;;;5033447;28;20330;-90
2022/03/15 08:21:31;;;;;;;30.23;16.37;;;8.10;99.90;;;;;;5032693;28;20501;-89
2022/03/15 08:23:59;;;;;;;30.63;17.40;;;8.10;99.90;;;;;;5051145;28;20237;-88
2022/03/15 08:26:26;;;;;;;26.53;16.13;;;8.20;99.90;;;;;;5049232;28;20199;-87
2022/03/15 08:28:53;;;;;;;29.40;16.77;;;8.20;99.90;;;;;;5053333;28;20309;-90
2022/03/15 08:31:19;;;;;;;29.57;16.43;;;8.30;99.90;;;;;;5039748;28;20215;-89
2022/03/15 08:33:46;;;;;;;23.97;16.20;;;8.30;99.90;;;;;;5032784;28;20203;-88
2022/03/15 08:36:13;;;;;;;25.70;15.97;;;8.30;99.90;;;;;;5048626;28;20334;-89
2022/03/15 08:38:41;;;;;;;28.20;15.77;;;8.40;99.90;;;;;;5046678;28;20268;-89
2022/03/15 08:41:08;;;;;;;28.07;16.13;;;8.50;99.90;;;;;;5031767;28;20241;-89
2022/03/15 08:43:35;;;;;;;25.90;15.37;;;8.50;99.90;;;;;;5038249;28;20208;-89
2022/03/15 08:46:03;;;;;;;26.57;15.50;;;8.60;99.90;;;;;;5051430;28;20702;-88
2022/03/15 08:48:31;;;;;;;27.60;14.97;;;8.70;99.90;;;;;;5048451;28;20340;-88
2022/03/15 08:51:00;;;;;;;28.47;15.83;;;8.70;99.90;;;;;;5049965;28;20203;-87
2022/03/15 08:53:28;;;;;;;26.23;14.33;;;8.70;99.90;;;;;;5048119;28;20200;-90
2022/03/15 08:55:55;;;;;;;24.20;14.77;;;8.80;99.90;;;;;;5049215;28;20594;-88
2022/03/15 08:58:22;;;;;;;26.40;14.40;;;8.80;99.90;;;;;;5031632;28;20214;-89
2022/03/15 09:00:51;;;;;;;24.60;14.77;;;8.90;99.90;;;;;;5050085;28;20245;-89
2022/03/15 09:03:18;;;;;;;25.17;15.17;;;9.00;99.90;;;;;;5037536;28;20220;-89
2022/03/15 09:05:46;;;;;;;24.13;14.50;;;9.00;99.90;;;;;;5034321;28;20201;-87
2022/03/15 09:08:15;;;;;;;27.30;14.30;;;9.10;99.90;;;;;;5028564;28;20234;-87
2022/03/15 09:10:44;;;;;;;22.73;14.27;;;9.20;99.90;;;;;;5048176;28;20223;-88
2022/03/15 09:13:12;;;;;;;23.20;14.03;;;8.40;99.90;;;;;;5032057;28;20203;-88
2022/03/15 09:15:39;;;;;;;22.27;13.87;;;9.50;99.90;;;;;;5045689;28;20240;-89
2022/03/15 09:18:07;;;;;;;23.73;13.50;;;9.30;99.90;;;;;;5043464;28;20280;-89
2022/03/15 09:20:35;;;;;;;28.53;14.73;;;9.30;99.90;;;;;;5035823;28;20276;-89
2022/03/15 09:23:02;;;;;;;20.50;13.97;;;9.30;99.90;;;;;;5049187;28;20537;-89
2022/03/15 09:25:32;;;;;;;19.83;14.40;;;9.30;99.90;;;;;;5045417;28;20231;-91
2022/03/15 09:28:02;;;;;;;26.50;14.90;;;9.40;99.90;;;;;;5034095;28;20283;-91
2022/03/15 09:30:30;;;;;;;27.40;13.43;;;9.40;99.90;;;;;;5034881;28;20209;-89
2022/03/15 09:32:58;;;;;;;25.13;13.23;;;9.40;99.90;;;;;;5052040;28;20216;-88
2022/03/15 09:35:26;;;;;;;20.50;13.33;;;9.50;99.90;;;;;;5050677;28;20394;-92
2022/03/15 09:37:54;;;;;;;22.93;12.63;;;9.50;99.90;;;;;;5051722;28;20197;-87
2022/03/15 09:40:25;;;;;;;20.63;12.87;;;9.50;99.90;;;;;;5049636;28;20209;-88
2022/03/15 09:42:58;;;;;;;23.43;12.80;;;9.60;99.90;;;;;;5046432;28;20197;-89
2022/03/15 09:45:29;;;;;;;23.53;13.30;;;9.60;99.90;;;;;;5048232;28;20253;-88
2022/03/15 09:47:59;;;;;;;24.67;12.40;;;9.60;99.90;;;;;;5048295;28;20291;-90
2022/03/15 09:50:26;;;;;;;23.07;13.87;;;9.70;99.90;;;;;;5035795;28;20581;-88
2022/03/15 09:52:55;;;;;;;21.83;13.33;;;9.80;99.90;;;;;;5043966;28;20273;-90
2022/03/15 09:55:22;;;;;;;23.50;11.87;;;9.80;99.90;;;;;;5047652;28;20233;-89
2022/03/15 09:57:50;;;;;;;23.90;13.87;;;9.80;99.90;;;;;;5032358;28;20709;-89
2022/03/15 10:00:17;;;;;;;21.77;12.63;;;9.90;99.90;;;;;;5043540;28;20296;-88
2022/03/15 10:02:44;;;;;;;20.23;12.33;;;9.90;99.90;;;;;;5042970;28;20203;-91
2022/03/15 10:05:13;;;;;;;19.13;12.33;;;9.90;99.90;;;;;;5049199;28;20232;-88
2022/03/15 10:07:41;;;;;;;23.90;13.63;;;10.00;99.90;;;;;;5035469;28;20569;-88
2022/03/15 10:10:13;;;;;;;19.90;12.43;;;9.90;99.90;;;;;;5059259;28;20264;-88
2022/03/15 10:12:40;;;;;;;25.03;12.73;;;10.00;99.90;;;;;;5041041;28;20310;-88
2022/03/15 10:15:16;;;;;;;20.27;12.53;;;9.90;99.90;;;;;;5054114;28;20248;-88
2022/03/15 10:18:06;;;;;;;22.10;13.33;;;10.20;99.90;;;;;;5034522;28;20211;-88
2022/03/15 10:20:42;;;;;;;19.83;13.30;;;10.20;99.90;;;;;;5052608;28;20202;-86
2022/03/15 10:23:10;;;;;;;19.00;12.47;;;10.20;99.90;;;;;;5053484;28;20274;-86
2022/03/15 10:25:41;;;;;;;19.60;12.50;;;10.30;99.90;;;;;;5049274;28;20201;-87
2022/03/15 10:28:09;;;;;;;23.50;12.97;;;10.30;99.90;;;;;;5030266;28;20251;-90
2022/03/15 10:30:42;;;;;;;23.17;12.90;;;10.40;99.90;;;;;;5029260;28;20286;-89
2022/03/15 10:33:09;;;;;;;21.53;11.97;;;10.50;99.90;;;;;;5052214;28;20232;-89
2022/03/15 10:35:45;;;;;;;25.33;13.50;;;10.50;99.90;;;;;;5052831;28;20294;-90
2022/03/15 10:38:12;;;;;;;24.97;12.27;;;10.60;99.90;;;;;;5035103;28;20532;-87
2022/03/15 10:40:42;;;;;;;18.07;11.13;;;10.60;99.90;;;;;;5051632;28;20685;-90
2022/03/15 10:43:14;;;;;;;18.73;12.13;;;10.70;99.90;;;;;;5036347;28;20206;-89
2022/03/15 10:45:50;;;;;;;22.13;12.47;;;10.80;99.90;;;;;;5053387;28;20247;-89
2022/03/15 10:48:23;;;;;;;25.43;14.07;;;10.80;99.90;;;;;;5035749;28;20211;-88
2022/03/15 10:51:01;;;;;;;22.30;12.80;;;10.90;99.90;;;;;;5047853;28;20200;-89
2022/03/15 10:53:46;;;;;;;23.43;12.60;;;10.90;99.90;;;;;;5051999;28;20305;-89
2022/03/15 10:56:18;;;;;;;20.57;12.33;;;10.90;99.90;;;;;;5035874;28;20318;-89
2022/03/15 10:58:47;;;;;;;20.47;13.37;;;11.00;99.90;;;;;;5034713;28;20300;-88
2022/03/15 11:01:20;;;;;;;24.80;14.07;;;11.00;99.90;;;;;;5063826;28;20220;-88
2022/03/15 11:03:59;;;;;;;25.03;13.53;;;11.10;99.90;;;;;;5065057;28;20743;-89
2022/03/15 11:06:30;;;;;;;22.87;13.10;;;11.10;99.90;;;;;;5061012;28;20209;-89
2022/03/15 11:08:59;;;;;;;24.23;12.93;;;11.30;99.90;;;;;;5043339;28;20231;-90
2022/03/15 11:11:27;;;;;;;25.97;14.10;;;11.10;99.90;;;;;;5039004;28;20253;-89
2022/03/15 11:14:02;;;;;;;25.40;12.83;;;11.80;99.90;;;;;;5063750;28;20200;-89
2022/03/15 11:16:37;;;;;;;20.97;13.17;;;11.40;99.90;;;;;;5036789;28;20231;-88
2022/03/15 11:19:05;;;;;;;24.27;13.60;;;11.70;99.90;;;;;;5049557;28;20622;-88
2022/03/15 11:21:34;;;;;;;27.47;13.13;;;11.30;99.90;;;;;;5061167;28;20213;-90
2022/03/15 11:24:03;;;;;;;22.87;12.90;;;11.70;99.90;;;;;;5064619;28;20271;-88
2022/03/15 11:26:33;;;;;;;25.60;13.13;;;11.60;99.90;;;;;;5046524;28;20634;-89
2022/03/15 11:29:02;;;;;;;22.90;13.33;;;11.70;99.90;;;;;;5062381;28;20299;-90
2022/03/15 11:31:30;;;;;;;20.77;12.87;;;11.80;99.90;;;;;;5059238;28;20247;-88
2022/03/15 11:34:02;;;;;;;26.00;12.43;;;11.80;99.90;;;;;;5064367;28;20302;-90
2022/03/15 11:36:31;;;;;;;23.50;12.60;;;11.70;99.90;;;;;;5043450;28;20274;-89
2022/03/15 11:38:58;;;;;;;21.83;12.43;;;11.80;99.90;;;;;;5052718;28;20223;-88
2022/03/15 11:41:26;;;;;;;24.33;13.30;;;12.50;99.90;;;;;;5032302;28;20969;-89
2022/03/15 11:44:31;;;;;;;22.13;12.33;;;12.10;99.90;;;;;;5056174;28;20316;-89
2022/03/15 11:47:11;;;;;;;23.07;11.87;;;12.10;99.90;;;;;;4977251;28;20259;-93
2022/03/15 11:50:02;;;;;;;19.77;11.07;;;11.90;99.90;;;;;;5023999;28;20300;-89
2022/03/15 11:52:56;;;;;;;22.93;11.40;;;12.10;99.90;;;;;;5058848;28;20199;-90
2022/03/15 11:55:38;;;;;;;26.80;11.80;;;12.10;99.90;;;;;;5059522;28;20359;-90
2022/03/15 11:58:07;;;;;;;22.30;11.37;;;12.20;99.90;;;;;;5039421;28;20262;-89
2022/03/15 12:00:44;;;;;;;17.73;11.77;;;12.00;99.90;;;;;;5036478;28;20538;-88
2022/03/15 12:03:19;;;;;;;22.77;11.40;;;12.20;99.90;;;;;;5037509;28;20669;-89
2022/03/15 12:05:55;;;;;;;21.13;11.53;;;11.80;99.90;;;;;;5038737;28;20577;-89
2022/03/15 12:08:24;;;;;;;20.67;10.80;;;12.20;99.90;;;;;;5047325;28;20240;-91
2022/03/15 12:10:56;;;;;;;19.37;11.20;;;12.70;99.90;;;;;;5039854;28;20300;-90
2022/03/15 12:13:45;;;;;;;18.73;10.63;;;12.30;99.90;;;;;;5039368;28;20235;-90
2022/03/15 12:16:15;;;;;;;19.27;10.00;;;12.40;99.90;;;;;;5055957;28;20253;-89
2022/03/15 12:18:53;;;;;;;21.60;10.60;;;12.30;99.90;;;;;;5039796;28;20201;-89
2022/03/15 12:21:26;;;;;;;22.67;9.87;;;12.50;99.90;;;;;;5051419;28;20258;-88
2022/03/15 12:23:54;;;;;;;16.03;9.83;;;12.70;99.90;;;;;;5035906;28;20250;-89
2022/03/15 12:26:29;;;;;;;15.80;9.67;;;12.60;99.90;;;;;;5037498;28;20213;-87
2022/03/15 12:29:12;;;;;;;16.57;9.73;;;12.90;99.90;;;;;;5032470;28;20208;-89
2022/03/15 12:31:44;;;;;;;18.90;9.77;;;12.60;99.90;;;;;;5050448;28;20252;-89
2022/03/15 12:34:17;;;;;;;19.00;10.07;;;14.00;99.90;;;;;;5037612;28;20660;-89
2022/03/15 12:36:51;;;;;;;16.37;9.37;;;12.80;99.90;;;;;;5035826;28;20232;-89
2022/03/15 12:39:23;;;;;;;18.23;10.13;;;12.90;99.90;;;;;;5052204;28;20216;-91
2022/03/15 12:42:04;;;;;;;16.50;9.10;;;13.10;99.90;;;;;;5036019;28;20767;-89
2022/03/15 12:44:43;;;;;;;16.27;8.57;;;13.00;99.90;;;;;;5060277;28;20279;-90
2022/03/15 12:47:27;;;;;;;18.53;9.50;;;13.10;99.90;;;;;;5060520;28;20221;-89